createdAt,value
2023-02-13T00:00:11.594Z,98.67
2023-02-13T00:01:11.546Z,98.36
2023-02-13T00:02:11.527Z,98.67
2023-02-13T00:03:11.496Z,98.67
2023-02-13T00:04:11.422Z,98.57
2023-02-13T00:05:11.395Z,98.97
2023-02-13T00:06:11.347Z,98.57
2023-02-13T00:07:11.299Z,98.77
2023-02-13T00:08:11.255Z,98.57
2023-02-13T00:09:11.242Z,98.46
2023-02-13T00:10:11.174Z,98.46
2023-02-13T00:11:11.127Z,98.87
2023-02-13T00:12:11.088Z,98.57
2023-02-13T00:13:11.054Z,98.67
2023-02-13T00:14:11.002Z,98.57
2023-02-13T00:15:10.981Z,98.57
2023-02-13T00:16:10.989Z,98.46
2023-02-13T00:17:10.914Z,98.67
2023-02-13T00:18:10.855Z,98.67
2023-02-13T00:19:10.798Z,98.67
2023-02-13T00:20:10.760Z,98.57
2023-02-13T00:21:10.724Z,98.67
2023-02-13T00:22:10.675Z,98.82
2023-02-13T00:23:10.630Z,98.57
2023-02-13T00:24:10.597Z,98.57
2023-02-13T00:25:10.558Z,98.77
2023-02-13T00:26:10.525Z,98.57
2023-02-13T00:27:10.458Z,98.82
2023-02-13T00:28:10.461Z,98.41
2023-02-13T00:29:10.380Z,98.71
2023-02-13T00:30:10.328Z,98.51
2023-02-13T00:31:10.408Z,99.22
2023-02-13T00:32:10.512Z,98.67
2023-02-13T00:33:10.222Z,98.67
2023-02-13T00:34:10.160Z,98.41
2023-02-13T00:35:10.118Z,98.77
2023-02-13T00:36:10.088Z,98.46
2023-02-13T00:37:10.042Z,98.87
2023-02-13T00:38:10.000Z,98.61
2023-02-13T00:39:09.972Z,98.46
2023-02-13T00:40:09.925Z,98.92
2023-02-13T00:41:09.871Z,98.92
2023-02-13T00:42:09.827Z,98.67
2023-02-13T00:43:09.786Z,98.82
2023-02-13T00:44:09.736Z,98.51
2023-02-13T00:45:09.702Z,98.57
2023-02-13T00:46:09.801Z,99.02
2023-02-13T00:47:09.629Z,98.51
2023-02-13T00:48:09.574Z,98.41
2023-02-13T00:49:09.531Z,98.71
2023-02-13T00:50:09.484Z,98.67
2023-02-13T00:51:09.457Z,99.22
2023-02-13T00:52:09.414Z,98.57
2023-02-13T00:53:09.365Z,99.02
2023-02-13T00:54:09.327Z,99.08
2023-02-13T00:55:09.285Z,98.92
2023-02-13T00:56:09.266Z,98.71
2023-02-13T00:57:09.210Z,98.82
2023-02-13T00:58:09.156Z,99.12
2023-02-13T00:59:09.150Z,99.02
2023-02-13T01:00:09.096Z,99.22
2023-02-13T01:01:09.035Z,98.71
2023-02-13T01:02:08.989Z,99.02
2023-02-13T01:03:08.977Z,98.92
2023-02-13T01:04:08.910Z,98.71
2023-02-13T01:05:08.869Z,98.51
2023-02-13T01:06:08.842Z,98.71
2023-02-13T01:07:08.788Z,98.61
2023-02-13T01:08:08.735Z,99.22
2023-02-13T01:09:08.698Z,98.77
2023-02-13T01:10:08.654Z,99.22
2023-02-13T01:11:08.617Z,98.71
2023-02-13T01:12:08.582Z,98.92
2023-02-13T01:13:08.531Z,98.82
2023-02-13T01:14:08.496Z,98.71
2023-02-13T01:15:08.451Z,98.30
2023-02-13T01:16:08.468Z,98.71
2023-02-13T01:17:08.374Z,98.61
2023-02-13T01:18:08.338Z,99.22
2023-02-13T01:19:08.282Z,99.12
2023-02-13T01:20:08.243Z,98.71
2023-02-13T01:21:08.250Z,99.33
2023-02-13T01:22:08.165Z,98.92
2023-02-13T01:23:08.125Z,99.02
2023-02-13T01:24:08.081Z,98.82
2023-02-13T01:25:08.042Z,98.92
2023-02-13T01:26:07.990Z,98.82
2023-02-13T01:27:07.956Z,98.82
2023-02-13T01:28:07.914Z,98.92
2023-02-13T01:29:07.866Z,99.12
2023-02-13T01:30:07.826Z,98.51
2023-02-13T01:31:07.924Z,98.96
2023-02-13T01:32:07.785Z,98.92
2023-02-13T01:33:07.703Z,99.17
2023-02-13T01:34:07.659Z,99.22
2023-02-13T01:35:07.615Z,98.86
2023-02-13T01:36:07.565Z,99.17
2023-02-13T01:37:07.542Z,99.43
2023-02-13T01:38:07.498Z,98.82
2023-02-13T01:39:07.445Z,98.86
2023-02-13T01:40:07.393Z,99.22
2023-02-13T01:41:07.352Z,99.22
2023-02-13T01:42:07.323Z,99.17
2023-02-13T01:43:07.274Z,98.76
2023-02-13T01:44:07.227Z,98.71
2023-02-13T01:45:07.193Z,99.38
2023-02-13T01:46:07.169Z,99.48
2023-02-13T01:47:07.101Z,98.96
2023-02-13T01:48:07.070Z,99.58
2023-02-13T01:49:07.020Z,99.48
2023-02-13T01:50:06.972Z,99.79
2023-02-13T01:51:06.941Z,99.17
2023-02-13T01:52:06.891Z,99.17
2023-02-13T01:53:06.850Z,99.79
2023-02-13T01:54:06.837Z,99.48
2023-02-13T01:55:06.765Z,99.48
2023-02-13T01:56:06.722Z,99.38
2023-02-13T01:57:06.681Z,99.48
2023-02-13T01:58:06.641Z,99.58
2023-02-13T01:59:06.626Z,99.58
2023-02-13T02:00:06.570Z,99.38
2023-02-13T02:01:06.512Z,99.58
2023-02-13T02:02:06.584Z,99.17
2023-02-13T02:03:06.443Z,98.96
2023-02-13T02:04:06.391Z,99.17
2023-02-13T02:05:06.358Z,99.38
2023-02-13T02:06:06.310Z,99.58
2023-02-13T02:07:06.279Z,98.86
2023-02-13T02:08:06.214Z,99.99
2023-02-13T02:09:06.174Z,99.38
2023-02-13T02:10:06.138Z,99.63
2023-02-13T02:11:06.102Z,98.70
2023-02-13T02:12:06.054Z,99.48
2023-02-13T02:13:06.014Z,99.58
2023-02-13T02:14:05.966Z,99.68
2023-02-13T02:15:05.931Z,99.79
2023-02-13T02:16:05.975Z,99.68
2023-02-13T02:17:05.860Z,99.48
2023-02-13T02:18:05.805Z,99.73
2023-02-13T02:19:05.773Z,99.58
2023-02-13T02:20:05.747Z,99.79
2023-02-13T02:21:05.672Z,99.73
2023-02-13T02:22:05.634Z,99.27
2023-02-13T02:23:05.614Z,99.83
2023-02-13T02:24:05.555Z,99.32
2023-02-13T02:25:05.507Z,99.73
2023-02-13T02:26:05.465Z,99.99
2023-02-13T02:27:05.442Z,99.42
2023-02-13T02:28:05.451Z,99.99
2023-02-13T02:29:05.342Z,99.63
2023-02-13T02:30:05.300Z,99.99
2023-02-13T02:31:05.390Z,99.42
2023-02-13T02:32:05.211Z,99.52
2023-02-13T02:33:05.176Z,99.73
2023-02-13T02:34:05.164Z,99.83
2023-02-13T02:35:05.099Z,99.93
2023-02-13T02:36:05.058Z,99.52
2023-02-13T02:37:05.009Z,99.52
2023-02-13T02:38:04.962Z,99.83
2023-02-13T02:39:04.938Z,99.63
2023-02-13T02:40:04.890Z,99.63
2023-02-13T02:41:04.840Z,99.63
2023-02-13T02:42:04.794Z,99.52
2023-02-13T02:43:04.760Z,99.63
2023-02-13T02:44:04.705Z,99.63
2023-02-13T02:45:04.667Z,99.83
2023-02-13T02:46:04.641Z,99.83
2023-02-13T02:47:04.584Z,99.93
2023-02-13T02:48:04.536Z,99.83
2023-02-13T02:49:04.508Z,99.93
2023-02-13T02:50:04.457Z,99.52
2023-02-13T02:51:04.410Z,99.52
2023-02-13T02:52:04.402Z,99.93
2023-02-13T02:53:04.325Z,99.73
2023-02-13T02:54:04.280Z,99.83
2023-02-13T02:55:04.244Z,99.63
2023-02-13T02:56:04.197Z,99.42
2023-02-13T02:57:04.168Z,99.83
2023-02-13T02:58:04.115Z,99.63
2023-02-13T02:59:04.075Z,99.93
2023-02-13T03:00:04.031Z,99.83
2023-02-13T03:01:03.998Z,99.73
2023-02-13T03:02:03.945Z,99.93
2023-02-13T03:03:03.924Z,99.93
2023-02-13T03:04:03.890Z,99.63
2023-02-13T03:05:03.815Z,99.99
2023-02-13T03:06:03.779Z,99.83
2023-02-13T03:07:03.746Z,99.73
2023-02-13T03:08:03.697Z,99.93
2023-02-13T03:09:03.648Z,99.73
2023-02-13T03:10:03.602Z,99.88
2023-02-13T03:11:03.561Z,99.83
2023-02-13T03:12:03.523Z,99.83
2023-02-13T03:13:03.483Z,99.88
2023-02-13T03:14:03.447Z,99.77
2023-02-13T03:15:03.410Z,99.93
2023-02-13T03:16:03.411Z,99.63
2023-02-13T03:17:03.324Z,99.67
2023-02-13T03:18:03.264Z,99.67
2023-02-13T03:19:03.240Z,99.77
2023-02-13T03:20:03.201Z,99.83
2023-02-13T03:21:03.164Z,99.99
2023-02-13T03:22:03.095Z,99.73
2023-02-13T03:23:03.084Z,99.99
2023-02-13T03:24:03.011Z,99.88
2023-02-13T03:25:02.986Z,99.73
2023-02-13T03:26:02.960Z,99.57
2023-02-13T03:27:02.953Z,99.93
2023-02-13T03:28:02.883Z,99.63
2023-02-13T03:29:02.808Z,99.83
2023-02-13T03:30:02.780Z,99.73
2023-02-13T03:31:02.744Z,99.83
2023-02-13T03:32:02.673Z,99.88
2023-02-13T03:33:02.645Z,99.42
2023-02-13T03:34:02.601Z,99.88
2023-02-13T03:35:02.557Z,99.88
2023-02-13T03:36:02.528Z,99.98
2023-02-13T03:37:02.480Z,99.67
2023-02-13T03:38:02.440Z,99.88
2023-02-13T03:39:02.383Z,99.98
2023-02-13T03:40:02.359Z,99.57
2023-02-13T03:41:02.327Z,99.63
2023-02-13T03:42:02.272Z,99.73
2023-02-13T03:43:02.238Z,99.93
2023-02-13T03:44:02.179Z,99.73
2023-02-13T03:45:02.127Z,99.83
2023-02-13T03:46:02.109Z,99.67
2023-02-13T03:47:02.048Z,99.98
2023-02-13T03:48:02.012Z,99.67
2023-02-13T03:49:01.958Z,99.77
2023-02-13T03:50:01.916Z,99.99
2023-02-13T03:51:01.902Z,99.63
2023-02-13T03:52:01.837Z,99.83
2023-02-13T03:53:01.789Z,99.83
2023-02-13T03:54:01.748Z,99.77
2023-02-13T03:55:01.706Z,99.73
2023-02-13T03:56:01.658Z,99.73
2023-02-13T03:57:01.663Z,99.88
2023-02-13T03:58:01.584Z,99.83
2023-02-13T03:59:01.542Z,99.77
2023-02-13T04:00:01.489Z,99.83
2023-02-13T04:01:01.496Z,99.73
2023-02-13T04:02:01.460Z,99.83
2023-02-13T04:03:01.381Z,99.77
2023-02-13T04:04:01.344Z,99.42
2023-02-13T04:05:01.294Z,99.83
2023-02-13T04:06:01.238Z,99.67
2023-02-13T04:07:01.199Z,99.63
2023-02-13T04:08:01.157Z,99.98
2023-02-13T04:09:01.133Z,99.77
2023-02-13T04:10:01.069Z,99.63
2023-02-13T04:11:01.026Z,99.77
2023-02-13T04:12:00.981Z,99.67
2023-02-13T04:13:00.948Z,99.99
2023-02-13T04:14:00.898Z,99.93
2023-02-13T04:15:00.867Z,99.99
2023-02-13T04:16:00.812Z,99.67
2023-02-13T04:17:00.816Z,99.67
2023-02-13T04:18:00.732Z,99.57
2023-02-13T04:19:00.700Z,99.88
2023-02-13T04:20:00.649Z,99.57
2023-02-13T04:21:00.600Z,99.88
2023-02-13T04:22:00.569Z,99.67
2023-02-13T04:23:00.533Z,99.83
2023-02-13T04:24:00.479Z,99.88
2023-02-13T04:25:00.436Z,99.77
2023-02-13T04:26:00.394Z,99.73
2023-02-13T04:27:00.351Z,99.77
2023-02-13T04:28:00.361Z,99.73
2023-02-13T04:29:00.295Z,99.77
2023-02-13T04:30:00.226Z,99.83
2023-02-13T04:31:00.668Z,99.88
2023-02-13T04:32:00.222Z,99.67
2023-02-13T04:33:00.103Z,99.57
2023-02-13T04:34:00.090Z,99.67
2023-02-13T04:35:00.028Z,99.67
2023-02-13T04:35:59.981Z,99.77
2023-02-13T04:36:59.931Z,99.98
2023-02-13T04:37:59.886Z,99.99
2023-02-13T04:38:59.849Z,99.57
2023-02-13T04:39:59.810Z,99.67
2023-02-13T04:40:59.998Z,99.67
2023-02-13T04:41:59.729Z,99.99
2023-02-13T04:42:59.682Z,99.77
2023-02-13T04:43:59.634Z,99.77
2023-02-13T04:44:59.600Z,99.88
2023-02-13T04:45:59.597Z,99.67
2023-02-13T04:46:59.532Z,99.67
2023-02-13T04:47:59.475Z,99.93
2023-02-13T04:48:59.426Z,99.77
2023-02-13T04:49:59.384Z,99.88
2023-02-13T04:50:59.541Z,99.67
2023-02-13T04:51:59.298Z,99.98
2023-02-13T04:52:59.275Z,99.99
2023-02-13T04:53:59.220Z,99.99
2023-02-13T04:54:59.172Z,99.99
2023-02-13T04:55:59.130Z,99.98
2023-02-13T04:56:59.095Z,99.93
2023-02-13T04:57:59.047Z,99.98
2023-02-13T04:58:59.040Z,99.93
2023-02-13T04:59:58.971Z,99.77
2023-02-13T05:00:59.392Z,99.99
2023-02-13T05:01:58.875Z,99.93
2023-02-13T05:02:58.832Z,99.51
2023-02-13T05:03:58.794Z,99.99
2023-02-13T05:04:58.753Z,99.99
2023-02-13T05:05:58.705Z,99.82
2023-02-13T05:06:58.663Z,99.93
2023-02-13T05:07:58.639Z,99.99
2023-02-13T05:08:58.575Z,99.62
2023-02-13T05:09:58.536Z,99.82
2023-02-13T05:10:58.756Z,99.82
2023-02-13T05:11:58.463Z,99.99
2023-02-13T05:12:58.403Z,99.93
2023-02-13T05:13:58.365Z,99.99
2023-02-13T05:14:58.331Z,99.72
2023-02-13T05:15:58.309Z,99.93
2023-02-13T05:16:58.245Z,99.82
2023-02-13T05:17:58.192Z,99.72
2023-02-13T05:18:58.152Z,99.99
2023-02-13T05:19:58.108Z,99.99
2023-02-13T05:20:58.379Z,99.93
2023-02-13T05:21:58.035Z,99.72
2023-02-13T05:22:57.992Z,99.82
2023-02-13T05:23:57.954Z,99.82
2023-02-13T05:24:57.895Z,99.72
2023-02-13T05:25:57.859Z,99.99
2023-02-13T05:26:57.816Z,99.99
2023-02-13T05:27:57.773Z,99.97
2023-02-13T05:28:57.738Z,99.72
2023-02-13T05:29:57.690Z,99.82
2023-02-13T05:30:58.274Z,99.10
2023-02-13T05:31:57.683Z,99.93
2023-02-13T05:32:57.556Z,99.82
2023-02-13T05:33:57.527Z,99.93
2023-02-13T05:34:57.483Z,99.82
2023-02-13T05:35:57.434Z,99.62
2023-02-13T05:36:57.384Z,99.82
2023-02-13T05:37:57.342Z,99.99
2023-02-13T05:38:57.295Z,99.97
2023-02-13T05:39:57.260Z,99.99
2023-02-13T05:40:57.421Z,99.66
2023-02-13T05:41:57.169Z,99.87
2023-02-13T05:42:57.131Z,99.99
2023-02-13T05:43:57.094Z,99.87
2023-02-13T05:44:57.053Z,99.91
2023-02-13T05:45:57.007Z,99.99
2023-02-13T05:46:56.981Z,99.99
2023-02-13T05:47:56.924Z,99.91
2023-02-13T05:48:56.891Z,99.99
2023-02-13T05:49:56.832Z,99.91
2023-02-13T05:50:57.188Z,99.99
2023-02-13T05:51:56.762Z,99.99
2023-02-13T05:52:56.714Z,99.77
2023-02-13T05:53:56.659Z,99.99
2023-02-13T05:54:56.614Z,99.99
2023-02-13T05:55:56.582Z,99.97
2023-02-13T05:56:56.542Z,99.91
2023-02-13T05:57:56.489Z,99.87
2023-02-13T05:58:56.460Z,99.71
2023-02-13T05:59:56.405Z,99.99
2023-02-13T06:00:56.640Z,99.87
2023-02-13T06:01:56.322Z,99.91
2023-02-13T06:02:56.337Z,99.97
2023-02-13T06:03:58.524Z,99.99
2023-02-13T06:04:56.203Z,99.97
2023-02-13T06:05:56.146Z,99.71
2023-02-13T06:06:56.095Z,99.99
2023-02-13T06:07:56.063Z,99.99
2023-02-13T06:08:56.008Z,99.99
2023-02-13T06:09:55.976Z,99.99
2023-02-13T06:10:55.931Z,99.99
2023-02-13T06:11:55.888Z,99.91
2023-02-13T06:12:55.844Z,99.99
2023-02-13T06:13:55.798Z,99.81
2023-02-13T06:14:55.766Z,99.76
2023-02-13T06:15:55.764Z,99.96
2023-02-13T06:16:55.668Z,99.71
2023-02-13T06:17:55.646Z,99.91
2023-02-13T06:18:55.579Z,99.86
2023-02-13T06:19:55.541Z,99.99
2023-02-13T06:20:55.972Z,99.99
2023-02-13T06:21:55.466Z,99.96
2023-02-13T06:22:55.447Z,99.96
2023-02-13T06:23:55.382Z,99.99
2023-02-13T06:24:55.323Z,99.96
2023-02-13T06:25:55.303Z,99.99
2023-02-13T06:26:55.232Z,99.96
2023-02-13T06:27:55.190Z,99.99
2023-02-13T06:28:55.164Z,99.99
2023-02-13T06:29:55.175Z,99.99
2023-02-13T06:30:55.592Z,99.99
2023-02-13T06:31:55.076Z,99.99
2023-02-13T06:32:54.977Z,99.99
2023-02-13T06:33:54.956Z,99.99
2023-02-13T06:34:54.925Z,99.99
2023-02-13T06:35:54.854Z,99.99
2023-02-13T06:36:54.799Z,99.99
2023-02-13T06:37:54.773Z,99.99
2023-02-13T06:38:54.718Z,99.99
2023-02-13T06:39:54.672Z,99.99
2023-02-13T06:40:54.641Z,99.99
2023-02-13T06:41:54.605Z,99.99
2023-02-13T06:42:54.561Z,99.99
2023-02-13T06:43:54.504Z,99.99
2023-02-13T06:44:54.459Z,99.99
2023-02-13T06:45:54.422Z,99.99
2023-02-13T06:46:54.479Z,99.99
2023-02-13T06:47:54.343Z,99.80
2023-02-13T06:48:54.290Z,99.99
2023-02-13T06:49:54.257Z,99.99
2023-02-13T06:50:54.199Z,99.99
2023-02-13T06:51:54.165Z,99.70
2023-02-13T06:52:54.121Z,99.99
2023-02-13T06:53:54.093Z,99.99
2023-02-13T06:54:54.029Z,99.99
2023-02-13T06:55:54.001Z,99.99
2023-02-13T06:56:53.941Z,99.99
2023-02-13T06:57:53.896Z,99.99
2023-02-13T06:58:53.875Z,99.99
2023-02-13T06:59:53.810Z,99.99
2023-02-13T07:00:53.813Z,99.99
2023-02-13T07:01:53.720Z,99.65
2023-02-13T07:02:53.767Z,99.99
2023-02-13T07:03:53.641Z,99.99
2023-02-13T07:04:53.600Z,99.99
2023-02-13T07:05:53.549Z,99.99
2023-02-13T07:06:53.522Z,99.86
2023-02-13T07:07:53.463Z,99.99
2023-02-13T07:08:53.421Z,99.55
2023-02-13T07:09:53.388Z,99.71
2023-02-13T07:10:53.338Z,99.55
2023-02-13T07:11:53.299Z,99.96
2023-02-13T07:13:04.998Z,99.86
2023-02-13T07:13:53.200Z,99.99
2023-02-13T07:14:53.160Z,99.99
2023-02-13T07:15:53.151Z,99.70
2023-02-13T07:16:53.072Z,99.99
2023-02-13T07:17:53.044Z,99.55
2023-02-13T07:18:52.988Z,99.99
2023-02-13T07:19:52.945Z,99.99
2023-02-13T07:20:52.904Z,99.99
2023-02-13T07:21:52.889Z,99.55
2023-02-13T07:22:52.830Z,99.99
2023-02-13T07:23:52.786Z,99.99
2023-02-13T07:24:52.746Z,99.99
2023-02-13T07:25:52.696Z,99.65
2023-02-13T07:26:52.658Z,99.99
2023-02-13T07:27:52.599Z,99.99
2023-02-13T07:29:05.659Z,99.99
2023-02-13T07:29:52.522Z,99.99
2023-02-13T07:30:52.509Z,99.99
2023-02-13T07:31:52.456Z,99.99
2023-02-13T07:32:52.386Z,99.99
2023-02-13T07:33:52.340Z,99.91
2023-02-13T07:35:01.317Z,99.46
2023-02-13T07:35:52.257Z,99.10
2023-02-13T07:36:52.228Z,99.01
2023-02-13T07:37:52.176Z,98.76
2023-02-13T07:38:52.124Z,98.25
2023-02-13T07:39:52.091Z,97.23
2023-02-13T07:40:52.056Z,96.72
2023-02-13T07:41:52.003Z,96.63
2023-02-13T07:42:51.957Z,96.12
2023-02-13T07:43:51.919Z,94.95
2023-02-13T07:44:51.893Z,94.89
2023-02-13T07:45:51.835Z,95.09
2023-02-13T07:46:51.891Z,94.89
2023-02-13T07:47:51.755Z,94.64
2023-02-13T07:48:51.718Z,93.47
2023-02-13T07:49:51.670Z,92.81
2023-02-13T07:50:51.629Z,92.34
2023-02-13T07:51:51.598Z,92.30
2023-02-13T07:52:51.546Z,91.89
2023-02-13T07:53:51.507Z,92.30
2023-02-13T07:54:51.469Z,91.42
2023-02-13T07:55:51.439Z,92.49
2023-02-13T07:56:51.396Z,93.26
2023-02-13T07:57:51.381Z,92.44
2023-02-13T07:58:51.305Z,91.69
2023-02-13T07:59:51.279Z,91.38
2023-02-13T08:00:51.245Z,91.13
2023-02-13T08:01:51.250Z,89.97
2023-02-13T08:02:51.146Z,89.15
2023-02-13T08:03:51.259Z,90.72
2023-02-13T08:04:51.072Z,89.97
2023-02-13T08:05:51.031Z,88.35
2023-02-13T08:06:50.988Z,86.30
2023-02-13T08:07:50.947Z,86.06
2023-02-13T08:08:50.906Z,84.63
2023-02-13T08:09:50.894Z,82.96
2023-02-13T08:10:50.824Z,83.12
2023-02-13T08:11:50.790Z,82.41
2023-02-13T08:12:50.765Z,81.90
2023-02-13T08:13:50.737Z,81.49
2023-02-13T08:14:50.678Z,81.29
2023-02-13T08:15:50.639Z,82.14
2023-02-13T08:16:50.638Z,81.73
2023-02-13T08:17:50.557Z,82.14
2023-02-13T08:18:50.512Z,81.80
2023-02-13T08:19:50.473Z,80.37
2023-02-13T08:20:50.435Z,81.63
2023-02-13T08:21:50.416Z,82.18
2023-02-13T08:22:50.357Z,83.04
2023-02-13T08:23:50.317Z,83.44
2023-02-13T08:24:50.288Z,83.40
2023-02-13T08:25:50.261Z,82.75
2023-02-13T08:26:50.223Z,81.02
2023-02-13T08:27:50.183Z,82.79
2023-02-13T08:28:50.129Z,83.95
2023-02-13T08:29:50.106Z,86.04
2023-02-13T08:30:50.106Z,84.06
2023-02-13T08:31:50.068Z,83.20
2023-02-13T08:32:54.142Z,84.57
2023-02-13T08:33:49.949Z,83.81
2023-02-13T08:34:49.914Z,82.65
2023-02-13T08:35:49.869Z,81.84
2023-02-13T08:36:49.836Z,81.80
2023-02-13T08:37:49.788Z,81.90
2023-02-13T08:38:49.753Z,81.09
2023-02-13T08:39:49.725Z,82.08
2023-02-13T08:40:49.681Z,84.88
2023-02-13T08:41:49.639Z,84.47
2023-02-13T08:42:49.608Z,83.40
2023-02-13T08:43:49.559Z,82.65
2023-02-13T08:44:49.537Z,82.35
2023-02-13T08:45:49.543Z,80.78
2023-02-13T08:46:49.479Z,80.02
2023-02-13T08:47:49.424Z,80.23
2023-02-13T08:48:49.379Z,81.53
2023-02-13T08:49:49.345Z,81.59
2023-02-13T08:50:49.322Z,79.72
2023-02-13T08:51:49.272Z,79.82
2023-02-13T08:52:49.235Z,79.58
2023-02-13T08:53:49.196Z,77.61
2023-02-13T08:54:49.161Z,78.02
2023-02-13T08:55:49.116Z,80.13
2023-02-13T08:56:49.104Z,79.11
2023-02-13T08:57:49.044Z,78.56
2023-02-13T08:58:49.014Z,77.75
2023-02-13T08:59:48.969Z,77.71
2023-02-13T09:00:49.006Z,77.71
2023-02-13T09:01:48.908Z,77.91
2023-02-13T09:02:48.894Z,77.37
2023-02-13T09:03:48.821Z,75.30
2023-02-13T09:04:48.792Z,74.48
2023-02-13T09:05:48.750Z,75.40
2023-02-13T09:06:48.719Z,75.43
2023-02-13T09:07:48.676Z,75.64
2023-02-13T09:08:48.661Z,76.21
2023-02-13T09:09:48.606Z,74.45
2023-02-13T09:10:48.579Z,74.85
2023-02-13T09:11:48.538Z,74.01
2023-02-13T09:12:48.517Z,74.31
2023-02-13T09:13:48.499Z,73.33
2023-02-13T09:14:48.427Z,73.94
2023-02-13T09:15:48.397Z,74.45
2023-02-13T09:16:48.407Z,75.09
2023-02-13T09:17:48.315Z,74.38
2023-02-13T09:18:48.300Z,75.16
2023-02-13T09:19:48.251Z,73.94
2023-02-13T09:20:48.217Z,74.15
2023-02-13T09:21:48.180Z,73.50
2023-02-13T09:22:48.160Z,73.50
2023-02-13T09:23:48.109Z,73.09
2023-02-13T09:24:48.122Z,73.63
2023-02-13T09:25:48.048Z,72.86
2023-02-13T09:26:48.010Z,73.97
2023-02-13T09:27:47.967Z,74.58
2023-02-13T09:28:48.033Z,73.94
2023-02-13T09:29:47.890Z,74.41
2023-02-13T09:30:48.065Z,72.85
2023-02-13T09:31:47.938Z,72.14
2023-02-13T09:32:47.806Z,71.70
2023-02-13T09:33:47.753Z,72.45
2023-02-13T09:34:47.741Z,73.09
2023-02-13T09:35:47.688Z,73.54
2023-02-13T09:36:47.692Z,74.65
2023-02-13T09:37:47.635Z,72.75
2023-02-13T09:38:47.586Z,72.52
2023-02-13T09:39:47.549Z,73.19
2023-02-13T09:40:47.529Z,72.45
2023-02-13T09:41:47.475Z,73.02
2023-02-13T09:42:47.445Z,72.31
2023-02-13T09:43:47.412Z,71.36
2023-02-13T09:44:47.381Z,71.30
2023-02-13T09:45:47.343Z,70.89
2023-02-13T09:46:47.359Z,71.70
2023-02-13T09:47:47.268Z,72.48
2023-02-13T09:48:47.241Z,71.67
2023-02-13T09:49:47.198Z,71.44
2023-02-13T09:50:47.176Z,69.88
2023-02-13T09:51:47.143Z,69.41
2023-02-13T09:52:47.129Z,68.56
2023-02-13T09:53:47.063Z,70.45
2023-02-13T09:54:47.032Z,72.17
2023-02-13T09:55:46.993Z,72.31
2023-02-13T09:56:46.965Z,70.38
2023-02-13T09:57:46.937Z,70.04
2023-02-13T09:58:46.905Z,69.71
2023-02-13T09:59:46.862Z,67.61
2023-02-13T10:00:46.822Z,67.82
2023-02-13T10:01:46.829Z,67.92
2023-02-13T10:02:46.765Z,68.52
2023-02-13T10:03:46.733Z,67.24
2023-02-13T10:04:46.732Z,68.08
2023-02-13T10:05:46.657Z,69.43
2023-02-13T10:06:46.615Z,69.13
2023-02-13T10:07:46.584Z,71.03
2023-02-13T10:08:46.560Z,70.86
2023-02-13T10:09:46.526Z,72.11
2023-02-13T10:10:46.483Z,71.23
2023-02-13T10:11:46.447Z,70.89
2023-02-13T10:12:46.415Z,69.84
2023-02-13T10:13:46.382Z,70.21
2023-02-13T10:14:46.357Z,68.90
2023-02-13T10:15:46.322Z,68.87
2023-02-13T10:16:46.270Z,68.46
2023-02-13T10:17:46.342Z,68.32
2023-02-13T10:18:46.209Z,66.84
2023-02-13T10:19:46.168Z,66.54
2023-02-13T10:20:46.148Z,66.64
2023-02-13T10:21:46.103Z,66.03
2023-02-13T10:22:46.070Z,64.79
2023-02-13T10:23:46.033Z,65.02
2023-02-13T10:24:46.011Z,64.18
2023-02-13T10:25:45.978Z,64.25
2023-02-13T10:26:45.982Z,63.75
2023-02-13T10:27:46.877Z,63.84
2023-02-13T10:28:45.915Z,64.89
2023-02-13T10:29:45.824Z,64.99
2023-02-13T10:30:45.878Z,66.40
2023-02-13T10:31:45.860Z,66.97
2023-02-13T10:32:45.724Z,66.60
2023-02-13T10:33:45.689Z,67.38
2023-02-13T10:34:45.673Z,66.50
2023-02-13T10:35:45.618Z,67.75
2023-02-13T10:36:45.606Z,68.56
2023-02-13T10:37:45.547Z,66.97
2023-02-13T10:38:45.525Z,65.66
2023-02-13T10:39:45.479Z,66.80
2023-02-13T10:40:45.449Z,67.25
2023-02-13T10:41:45.423Z,65.39
2023-02-13T10:42:45.405Z,62.30
2023-02-13T10:43:45.339Z,63.28
2023-02-13T10:44:45.307Z,63.01
2023-02-13T10:45:45.283Z,63.01
2023-02-13T10:46:45.319Z,62.77
2023-02-13T10:47:45.227Z,62.14
2023-02-13T10:48:45.173Z,61.94
2023-02-13T10:49:45.156Z,62.93
2023-02-13T10:50:45.106Z,64.12
2023-02-13T10:51:45.068Z,64.72
2023-02-13T10:52:45.034Z,65.12
2023-02-13T10:53:45.010Z,65.22
2023-02-13T10:54:44.980Z,64.69
2023-02-13T10:55:44.929Z,65.76
2023-02-13T10:56:44.913Z,65.83
2023-02-13T10:57:44.869Z,65.39
2023-02-13T10:58:44.838Z,63.92
2023-02-13T10:59:44.831Z,63.10
2023-02-13T11:00:44.766Z,63.84
2023-02-13T11:01:44.786Z,62.84
2023-02-13T11:02:44.695Z,63.54
2023-02-13T11:03:44.679Z,63.87
2023-02-13T11:04:44.661Z,66.24
2023-02-13T11:05:44.604Z,63.95
2023-02-13T11:06:44.560Z,62.85
2023-02-13T11:07:44.517Z,61.73
2023-02-13T11:08:44.502Z,63.08
2023-02-13T11:09:44.447Z,61.96
2023-02-13T11:10:44.446Z,62.44
2023-02-13T11:11:44.396Z,61.83
2023-02-13T11:12:44.348Z,63.10
2023-02-13T11:13:44.310Z,62.87
2023-02-13T11:14:44.281Z,62.40
2023-02-13T11:15:44.277Z,63.50
2023-02-13T11:16:44.221Z,63.98
2023-02-13T11:17:44.189Z,65.12
2023-02-13T11:18:44.148Z,63.47
2023-02-13T11:19:44.106Z,63.98
2023-02-13T11:20:44.075Z,63.67
2023-02-13T11:21:44.049Z,63.87
2023-02-13T11:22:44.002Z,64.55
2023-02-13T11:23:43.967Z,62.37
2023-02-13T11:24:43.941Z,62.10
2023-02-13T11:25:43.899Z,62.40
2023-02-13T11:26:43.952Z,62.57
2023-02-13T11:27:43.831Z,60.93
2023-02-13T11:28:43.911Z,62.44
2023-02-13T11:29:43.774Z,60.60
2023-02-13T11:30:43.729Z,61.10
2023-02-13T11:31:43.801Z,61.76
2023-02-13T11:32:50.785Z,63.10
2023-02-13T11:33:43.625Z,61.96
2023-02-13T11:34:43.594Z,62.64
2023-02-13T11:35:43.557Z,60.52
2023-02-13T11:36:43.530Z,61.16
2023-02-13T11:37:43.493Z,61.96
2023-02-13T11:38:43.477Z,61.96
2023-02-13T11:39:43.439Z,61.94
2023-02-13T11:40:43.392Z,62.37
2023-02-13T11:41:43.356Z,61.05
2023-02-13T11:42:43.361Z,62.60
2023-02-13T11:43:43.287Z,61.59
2023-02-13T11:44:43.267Z,61.56
2023-02-13T11:45:43.227Z,61.25
2023-02-13T11:46:43.213Z,61.13
2023-02-13T11:47:43.182Z,59.35
2023-02-13T11:48:43.124Z,59.15
2023-02-13T11:49:43.098Z,59.12
2023-02-13T11:50:43.077Z,59.08
2023-02-13T11:51:43.025Z,60.19
2023-02-13T11:52:42.985Z,59.58
2023-02-13T11:53:42.951Z,59.28
2023-02-13T11:54:42.928Z,60.36
2023-02-13T11:55:42.897Z,59.56
2023-02-13T11:57:03.152Z,59.15
2023-02-13T11:57:42.816Z,58.95
2023-02-13T11:58:43.403Z,59.89
2023-02-13T11:59:42.764Z,60.12
2023-02-13T12:00:42.721Z,61.56
2023-02-13T12:01:42.693Z,62.19
2023-02-13T12:02:42.748Z,61.39
2023-02-13T12:03:42.640Z,61.96
2023-02-13T12:04:42.648Z,61.99
2023-02-13T12:05:42.551Z,62.77
2023-02-13T12:06:42.520Z,62.37
2023-02-13T12:07:42.521Z,62.81
2023-02-13T12:08:42.452Z,63.27
2023-02-13T12:09:42.437Z,62.96
2023-02-13T12:10:42.392Z,64.18
2023-02-13T12:11:42.357Z,63.67
2023-02-13T12:12:42.319Z,63.47
2023-02-13T12:13:42.292Z,63.13
2023-02-13T12:14:42.254Z,62.27
2023-02-13T12:15:42.222Z,61.56
2023-02-13T12:16:42.291Z,60.93
2023-02-13T12:17:42.174Z,61.16
2023-02-13T12:18:42.124Z,60.62
2023-02-13T12:19:42.088Z,60.96
2023-02-13T12:20:42.042Z,60.42
2023-02-13T12:21:42.012Z,59.91
2023-02-13T12:22:41.976Z,60.72
2023-02-13T12:23:42.009Z,61.23
2023-02-13T12:24:41.908Z,60.32
2023-02-13T12:25:41.870Z,60.02
2023-02-13T12:26:41.840Z,60.29
2023-02-13T12:27:41.806Z,59.66
2023-02-13T12:28:41.798Z,59.58
2023-02-13T12:29:41.773Z,60.49
2023-02-13T12:30:41.772Z,60.62
2023-02-13T12:31:41.720Z,62.12
2023-02-13T12:32:41.644Z,62.76
2023-02-13T12:33:41.600Z,62.84
2023-02-13T12:34:41.586Z,61.49
2023-02-13T12:35:41.526Z,60.88
2023-02-13T12:36:41.499Z,60.85
2023-02-13T12:37:41.467Z,61.13
2023-02-13T12:38:41.430Z,60.93
2023-02-13T12:39:41.407Z,60.82
2023-02-13T12:40:41.376Z,61.29
2023-02-13T12:41:41.333Z,62.10
2023-02-13T12:42:41.298Z,63.07
2023-02-13T12:43:41.256Z,63.09
2023-02-13T12:44:41.220Z,64.24
2023-02-13T12:45:41.255Z,64.47
2023-02-13T12:46:41.166Z,65.25
2023-02-13T12:47:41.125Z,64.78
2023-02-13T12:48:41.085Z,65.48
2023-02-13T12:49:41.058Z,65.31
2023-02-13T12:50:41.017Z,66.77
2023-02-13T12:51:40.985Z,66.26